Terminal Aerodrome Forecast
Issued by NWS

Home | Current Version | Previous Version | Text Only | Print | Product List | Glossary On
Versions: 1 2 3 4 5 6 7 8 9 10 11 12 13 14 15 16 17 18 19 20 21 22 23 24 25 26 27 28 29 30 31 32 33 34 35 36 37 38
000
FTUS44 KHGX 271139
TAFCXO
TAF
KCXO 271139Z 2712/2812 15006KT 4SM BR VCSH OVC005
     FM271400 21004KT 5SM -SHRA BR SCT007 OVC010
      TEMPO 2716/2720 2SM -TSRA BR BKN007CB
     FM272200 32008KT P6SM VCSH BKN015
     FM281000 34012G20KT P6SM -DZ BKN012=

USA.gov is the U.S. government's official web portal to all federal, state and local government web resources and services.